createdAt,value
2022-11-14T00:10:25.301Z,50.88294314381271
2022-11-14T00:27:44.945Z,54.0
2022-11-14T00:38:48.321Z,53.51170568561873
2022-11-14T00:45:15.748Z,53.39464882943144
2022-11-14T00:51:43.286Z,53.84615384615385
2022-11-14T00:58:10.435Z,53.896321070234116
2022-11-14T01:04:37.939Z,53.280936454849495
2022-11-14T01:11:04.609Z,54.90635451505017
2022-11-14T01:17:31.977Z,55.331103678929765
2022-11-14T01:28:59.894Z,52.28428093645485
2022-11-14T01:40:42.619Z,52.57859531772575
2022-11-14T01:53:23.369Z,51.0066889632107
2022-11-14T01:59:50.829Z,51.468227424749166
2022-11-14T02:06:17.845Z,49.25418060200669
2022-11-14T02:12:45.433Z,51.147157190635454
2022-11-14T02:22:19.866Z,51.063545150501675
2022-11-14T02:28:53.497Z,50.408026755852845
2022-11-14T02:35:20.518Z,51.90635451505017
2022-11-14T02:41:47.962Z,51.74916387959866
2022-11-14T02:50:43.270Z,51.08695652173913
2022-11-14T02:57:10.556Z,50.87290969899666
2022-11-14T03:03:38.290Z,52.30100334448161
2022-11-14T03:10:05.877Z,52.60535117056856
2022-11-14T03:16:32.859Z,53.23745819397993
2022-11-14T03:25:19.985Z,52.575250836120404
2022-11-14T03:31:47.169Z,53.96989966555184
2022-11-14T03:38:14.678Z,53.7123745819398
2022-11-14T03:44:41.686Z,54.31438127090301
2022-11-14T03:51:08.657Z,51.675585284280935
2022-11-14T03:57:35.780Z,52.474916387959865
2022-11-14T04:04:07.019Z,52.79598662207358
2022-11-14T04:10:37.785Z,53.62207357859532
2022-11-14T04:17:05.679Z,53.46488294314381
2022-11-14T04:23:44.377Z,54.070234113712374
2022-11-14T04:31:20.053Z,54.33444816053512
2022-11-14T04:47:57.815Z,58.25083612040134
2022-11-14T05:03:28.292Z,58.070234113712374
2022-11-14T05:09:56.474Z,57.274247491638796
2022-11-14T05:24:54.131Z,57.19063545150502
2022-11-14T05:34:58.469Z,57.020066889632105
2022-11-14T05:41:26.991Z,58.22742474916388
2022-11-14T05:47:54.968Z,58.675585284280935
2022-11-14T05:59:06.584Z,59.08361204013378
2022-11-14T06:05:36.108Z,61.2943143812709
2022-11-14T06:12:04.314Z,60.187290969899664
2022-11-14T06:23:51.126Z,60.752508361204015
2022-11-14T06:30:18.608Z,60.92642140468227
2022-11-14T06:42:09.526Z,61.2675585284281
2022-11-14T06:48:37.451Z,59.87290969899666
2022-11-14T06:55:04.324Z,60.7324414715719
2022-11-14T07:09:44.590Z,63.080267558528426
2022-11-14T07:16:10.893Z,63.735785953177256
2022-11-14T07:23:34.946Z,63.23076923076923
2022-11-14T07:30:02.046Z,63.31438127090301
2022-11-14T07:36:29.569Z,64.81939799331104
2022-11-14T07:42:56.299Z,66.49832775919732
2022-11-14T07:51:02.996Z,65.96655518394648
2022-11-14T07:57:31.669Z,65.10702341137124
2022-11-14T08:04:01.645Z,62.618729096989966
2022-11-14T08:24:38.799Z,63.94983277591973
2022-11-14T08:37:21.290Z,64.08361204013377
2022-11-14T08:43:48.396Z,65.5551839464883
2022-11-14T08:50:15.868Z,63.735785953177256
2022-11-14T08:57:25.510Z,64.6086956521739
2022-11-14T09:03:55.561Z,65.24749163879599
2022-11-14T09:10:26.820Z,63.391304347826086
2022-11-14T09:24:44.560Z,59.819397993311036
2022-11-14T09:33:00.277Z,62.046822742474916
2022-11-14T09:39:27.095Z,59.92307692307692
2022-11-14T09:48:52.126Z,61.66220735785953
2022-11-14T09:59:48.305Z,61.1505016722408
2022-11-14T10:06:15.385Z,60.19397993311037
2022-11-14T10:12:42.280Z,63.94314381270903
2022-11-14T10:21:28.415Z,63.12709030100334
2022-11-14T10:28:05.075Z,62.09364548494983
2022-11-14T10:34:33.928Z,61.51839464882943
2022-11-14T10:43:10.700Z,63.77591973244147
2022-11-14T10:57:50.501Z,60.21070234113712
2022-11-14T11:08:42.860Z,62.69230769230769
2022-11-14T11:18:07.900Z,61.103678929765884
2022-11-14T11:31:39.835Z,63.802675585284284
2022-11-14T11:38:09.070Z,64.5551839464883
2022-11-14T11:44:38.712Z,61.491638795986624
2022-11-14T11:51:05.996Z,61.20066889632107
2022-11-14T12:05:55.667Z,62.33779264214047
2022-11-14T12:12:23.056Z,61.40468227424749
2022-11-14T12:18:49.796Z,60.9933110367893
2022-11-14T12:48:05.605Z,61.27759197324415
2022-11-14T12:57:10.050Z,61.1505016722408
2022-11-14T13:03:38.715Z,60.44481605351171
2022-11-14T13:10:06.911Z,60.32775919732441
2022-11-14T13:16:34.943Z,59.30434782608695
2022-11-14T13:24:57.836Z,60.47157190635451
2022-11-14T13:31:25.443Z,60.180602006688964
2022-11-14T13:37:52.191Z,60.76254180602007
2022-11-14T13:44:19.506Z,59.214046822742475
2022-11-14T13:53:55.519Z,57.986622073578594
2022-11-14T14:01:32.050Z,56.88628762541806
2022-11-14T14:08:52.543Z,57.84280936454849
2022-11-14T14:15:19.674Z,57.525083612040135
2022-11-14T14:21:46.426Z,56.0
2022-11-14T14:33:49.432Z,55.979933110367895
2022-11-14T14:40:16.936Z,56.7123745819398
2022-11-14T14:46:44.157Z,54.468227424749166
2022-11-14T14:53:10.721Z,55.7056856187291
2022-11-14T14:59:38.280Z,54.862876254180605
2022-11-14T15:06:04.938Z,53.43478260869565
2022-11-14T15:12:31.912Z,55.247491638795985
2022-11-14T15:18:59.039Z,53.33779264214047
2022-11-14T15:29:43.485Z,54.25752508361204
2022-11-14T15:36:09.695Z,53.95986622073578
2022-11-14T15:46:29.704Z,55.65886287625418
2022-11-14T15:52:56.685Z,54.4314381270903
2022-11-14T16:02:34.358Z,54.558528428093645
2022-11-14T16:09:01.235Z,53.73913043478261
2022-11-14T16:23:29.832Z,59.197324414715716
2022-11-14T16:29:57.143Z,60.05351170568562
2022-11-14T16:36:24.568Z,59.94983277591973
2022-11-14T16:42:51.462Z,60.27090301003344
2022-11-14T16:49:18.380Z,61.46488294314381
2022-11-14T16:55:45.595Z,58.58862876254181
2022-11-14T17:08:25.747Z,97.62876254180603
2022-11-14T17:14:52.596Z,95.5351170568562
2022-11-14T17:21:19.780Z,91.65886287625418
2022-11-14T17:32:47.038Z,71.18060200668896
2022-11-14T17:39:15.783Z,66.65886287625418
2022-11-14T17:45:43.277Z,62.17391304347826
2022-11-14T17:52:10.606Z,66.06020066889631
2022-11-14T18:10:23.843Z,63.98996655518395
2022-11-14T18:17:11.224Z,63.98996655518395
2022-11-14T18:30:41.299Z,60.73913043478261
2022-11-14T18:37:10.282Z,61.94983277591973
2022-11-14T18:43:38.711Z,61.31103678929766
2022-11-14T18:50:07.727Z,62.374581939799334
2022-11-14T18:56:36.021Z,62.04013377926422
2022-11-14T19:03:15.360Z,59.48160535117057
2022-11-14T19:10:22.525Z,60.709030100334445
2022-11-14T19:18:16.526Z,57.76254180602007
2022-11-14T19:29:52.378Z,54.290969899665555
2022-11-14T19:40:12.247Z,51.34448160535117
2022-11-14T19:46:45.881Z,51.903010033444815
2022-11-14T19:55:52.409Z,50.24414715719063
2022-11-14T20:02:19.793Z,51.220735785953174
2022-11-14T20:08:47.104Z,48.936454849498325
2022-11-14T20:18:57.447Z,50.30769230769231
2022-11-14T20:30:29.355Z,47.51505016722408
2022-11-14T20:44:12.259Z,45.10033444816054
2022-11-14T20:56:06.654Z,46.896321070234116
2022-11-14T21:02:38.123Z,45.51839464882943
2022-11-14T21:09:09.291Z,44.96321070234114
2022-11-14T21:31:40.691Z,46.76254180602007
2022-11-14T21:41:59.831Z,46.25418060200669
2022-11-14T21:48:27.379Z,45.779264214046826
2022-11-14T21:54:58.019Z,46.48160535117057
2022-11-14T22:01:34.310Z,45.541806020066886
2022-11-14T22:08:07.708Z,46.468227424749166
2022-11-14T22:14:36.257Z,45.38461538461539
2022-11-14T22:21:06.178Z,45.87290969899666
2022-11-14T22:29:41.430Z,45.97658862876254
2022-11-14T22:36:10.302Z,46.60200668896321
2022-11-14T22:42:38.805Z,46.96655518394649
2022-11-14T22:55:53.014Z,46.76254180602007
2022-11-14T23:12:50.436Z,45.103678929765884
2022-11-14T23:19:20.190Z,43.80602006688963
2022-11-14T23:25:52.408Z,43.719063545150505
2022-11-14T23:32:19.460Z,44.87290969899666
2022-11-14T23:54:19.331Z,41.42140468227425
